createdAt,value
2018-06-19T00:00:40.122Z,4.17
2018-06-19T00:03:10.396Z,4.60
2018-06-19T00:05:41.397Z,4.50
2018-06-19T00:08:11.658Z,4.53
2018-06-19T00:10:42.474Z,4.90
2018-06-19T00:13:12.800Z,4.77
2018-06-19T00:15:43.595Z,4.60
2018-06-19T00:18:27.128Z,5.00
2018-06-19T00:21:00.860Z,4.80
2018-06-19T00:23:31.578Z,4.70
2018-06-19T00:26:02.731Z,5.37
2018-06-19T00:28:34.210Z,4.43
2018-06-19T00:31:11.731Z,4.43
2018-06-19T00:33:42.325Z,4.23
2018-06-19T00:36:13.512Z,4.77
2018-06-19T00:38:44.250Z,4.70
2018-06-19T00:41:15.068Z,4.37
2018-06-19T00:43:45.393Z,5.00
2018-06-19T00:46:17.438Z,4.50
2018-06-19T00:48:48.001Z,4.60
2018-06-19T00:51:18.466Z,4.83
2018-06-19T00:53:48.829Z,4.30
2018-06-19T00:56:29.941Z,4.90
2018-06-19T00:59:00.365Z,6.90
2018-06-19T01:01:31.429Z,7.90
2018-06-19T01:04:02.097Z,5.67
2018-06-19T01:06:32.679Z,5.97
2018-06-19T01:09:03.077Z,5.73
2018-06-19T01:11:34.562Z,5.47
2018-06-19T01:14:05.053Z,5.00
2018-06-19T01:16:35.579Z,5.10
2018-06-19T01:19:06.386Z,4.27
2018-06-19T01:21:37.070Z,4.47
2018-06-19T01:24:07.622Z,4.50
2018-06-19T01:26:38.733Z,4.03
2018-06-19T01:29:09.368Z,4.53
2018-06-19T01:31:40.795Z,4.20
2018-06-19T01:34:11.144Z,4.63
2018-06-19T01:36:42.035Z,4.20
2018-06-19T01:39:12.691Z,4.33
2018-06-19T01:41:43.101Z,4.17
2018-06-19T01:44:13.243Z,3.83
2018-06-19T01:46:44.469Z,3.83
2018-06-19T01:49:15.808Z,4.30
2018-06-19T01:51:46.788Z,4.33
2018-06-19T01:54:17.357Z,4.00
2018-06-19T01:56:47.812Z,3.70
2018-06-19T01:59:18.840Z,4.30
2018-06-19T02:01:49.449Z,4.07
2018-06-19T02:04:19.801Z,3.90
2018-06-19T02:06:49.876Z,3.83
2018-06-19T02:09:20.816Z,3.93
2018-06-19T02:11:51.375Z,3.90
2018-06-19T02:14:21.741Z,4.33
2018-06-19T02:16:52.609Z,4.27
2018-06-19T02:19:23.529Z,4.27
2018-06-19T02:21:54.138Z,4.13
2018-06-19T02:24:24.481Z,4.20
2018-06-19T02:26:54.876Z,4.50
2018-06-19T02:29:25.395Z,4.30
2018-06-19T02:31:56.498Z,4.13
2018-06-19T02:34:27.194Z,4.10
2018-06-19T02:36:58.426Z,4.63
2018-06-19T02:39:29.865Z,4.47
2018-06-19T02:42:00.851Z,4.93
2018-06-19T02:44:32.269Z,4.83
2018-06-19T02:47:02.876Z,4.53
2018-06-19T02:49:34.358Z,5.23
2018-06-19T02:52:05.220Z,4.90
2018-06-19T02:54:35.742Z,4.87
2018-06-19T02:57:06.425Z,5.30
2018-06-19T02:59:37.088Z,5.03
2018-06-19T03:02:07.490Z,5.70
2018-06-19T03:04:38.200Z,5.23
2018-06-19T03:07:08.743Z,5.60
2018-06-19T03:09:39.121Z,5.23
2018-06-19T03:12:09.722Z,5.90
2018-06-19T03:14:40.362Z,5.57
2018-06-19T03:17:11.253Z,5.77
2018-06-19T03:19:42.112Z,5.67
2018-06-19T03:22:12.947Z,5.83
2018-06-19T03:24:43.714Z,5.87
2018-06-19T03:27:15.091Z,6.47
2018-06-19T03:29:45.729Z,6.30
2018-06-19T03:32:16.140Z,7.00
2018-06-19T03:34:46.789Z,7.50
2018-06-19T03:37:17.381Z,6.93
2018-06-19T03:39:47.886Z,7.23
2018-06-19T03:42:18.686Z,6.63
2018-06-19T03:44:49.168Z,6.80
2018-06-19T03:47:20.149Z,7.27
2018-06-19T03:49:50.990Z,6.30
2018-06-19T03:52:21.594Z,6.67
2018-06-19T03:54:51.900Z,6.73
2018-06-19T03:57:22.173Z,7.10
2018-06-19T03:59:53.026Z,7.37
2018-06-19T04:02:23.291Z,7.03
2018-06-19T04:04:54.118Z,7.77
2018-06-19T04:07:24.690Z,7.30
2018-06-19T04:09:55.042Z,8.17
2018-06-19T04:12:25.432Z,7.80
2018-06-19T04:14:56.345Z,7.30
2018-06-19T04:17:28.787Z,8.10
2018-06-19T04:19:59.937Z,7.97
2018-06-19T04:22:30.635Z,7.97
2018-06-19T04:25:01.067Z,9.10
2018-06-19T04:27:31.997Z,9.57
2018-06-19T04:30:03.092Z,10.43
2018-06-19T04:32:33.482Z,10.07
2018-06-19T04:35:04.832Z,10.33
2018-06-19T04:37:35.380Z,11.33
2018-06-19T04:40:06.222Z,12.27
2018-06-19T04:42:36.734Z,11.53
2018-06-19T04:45:08.830Z,11.47
2018-06-19T04:47:38.984Z,11.07
2018-06-19T04:50:09.769Z,12.07
2018-06-19T04:52:40.829Z,12.40
2018-06-19T04:55:11.950Z,12.83
2018-06-19T04:57:42.313Z,14.03
2018-06-19T05:00:12.663Z,12.80
2018-06-19T05:02:43.052Z,12.00
2018-06-19T05:05:13.642Z,11.47
2018-06-19T05:07:44.215Z,10.80
2018-06-19T05:10:14.903Z,11.33
2018-06-19T05:12:45.609Z,11.33
2018-06-19T05:15:16.283Z,10.43
2018-06-19T05:17:47.426Z,10.63
2018-06-19T05:20:18.919Z,10.77
2018-06-19T05:22:49.681Z,10.53
2018-06-19T05:25:20.490Z,10.47
2018-06-19T05:27:51.685Z,11.93
2018-06-19T05:30:22.019Z,10.63
2018-06-19T05:32:52.611Z,10.83
2018-06-19T05:35:22.966Z,10.90
2018-06-19T05:37:53.513Z,11.37
2018-06-19T05:40:24.244Z,11.10
2018-06-19T05:42:54.480Z,10.83
2018-06-19T05:45:24.973Z,10.83
2018-06-19T05:47:55.285Z,11.00
2018-06-19T05:50:25.507Z,12.37
2018-06-19T05:52:55.981Z,11.00
2018-06-19T05:55:26.248Z,11.90
2018-06-19T05:57:56.565Z,11.97
2018-06-19T06:00:26.800Z,11.10
2018-06-19T06:02:57.531Z,12.13
2018-06-19T06:05:27.849Z,11.73
2018-06-19T06:07:58.428Z,11.87
2018-06-19T06:10:28.906Z,10.50
2018-06-19T06:12:59.605Z,10.83
2018-06-19T06:15:30.017Z,9.30
2018-06-19T06:18:00.516Z,10.53
2018-06-19T06:20:30.801Z,9.80
2018-06-19T06:23:01.412Z,6.90
2018-06-19T06:25:31.696Z,7.63
2018-06-19T06:28:02.288Z,7.13
2018-06-19T06:30:32.803Z,6.63
2018-06-19T06:33:03.195Z,6.53
2018-06-19T06:35:33.211Z,7.27
2018-06-19T06:38:03.804Z,7.50
2018-06-19T06:40:34.308Z,7.67
2018-06-19T06:43:04.977Z,7.23
2018-06-19T06:45:35.291Z,7.40
2018-06-19T06:48:05.670Z,7.97
2018-06-19T06:50:36.317Z,7.97
2018-06-19T06:53:06.636Z,7.90
2018-06-19T06:55:37.345Z,8.73
2018-06-19T06:58:07.801Z,8.80
2018-06-19T07:00:38.320Z,6.10
2018-06-19T07:03:08.608Z,5.63
2018-06-19T07:05:39.396Z,6.13
2018-06-19T07:08:09.624Z,6.90
2018-06-19T07:10:39.940Z,6.70
2018-06-19T07:13:11.192Z,5.47
2018-06-19T07:15:41.423Z,6.03
2018-06-19T07:18:11.881Z,5.33
2018-06-19T07:20:42.186Z,5.50
2018-06-19T07:23:12.613Z,5.23
2018-06-19T07:25:42.879Z,5.23
2018-06-19T07:28:13.257Z,5.97
2018-06-19T07:30:43.828Z,5.63
2018-06-19T07:33:14.687Z,5.30
2018-06-19T07:35:45.088Z,4.60
2018-06-19T07:38:15.520Z,6.00
2018-06-19T07:40:46.448Z,5.37
2018-06-19T07:43:16.888Z,6.43
2018-06-19T07:45:47.496Z,5.33
2018-06-19T07:48:17.617Z,5.40
2018-06-19T07:50:47.977Z,6.77
2018-06-19T07:53:18.352Z,8.33
2018-06-19T07:55:48.728Z,6.73
2018-06-19T07:58:19.409Z,4.47
2018-06-19T08:00:50.333Z,4.60
2018-06-19T08:03:20.596Z,4.40
2018-06-19T08:05:50.994Z,4.30
2018-06-19T08:08:21.307Z,5.50
2018-06-19T08:10:52.003Z,4.43
2018-06-19T08:13:22.474Z,4.63
2018-06-19T08:15:53.614Z,3.90
2018-06-19T08:18:24.153Z,4.47
2018-06-19T08:20:55.126Z,3.33
2018-06-19T08:23:25.685Z,4.60
2018-06-19T08:25:56.317Z,4.60
2018-06-19T08:28:26.721Z,4.67
2018-06-19T08:30:57.048Z,4.03
2018-06-19T08:33:27.311Z,4.67
2018-06-19T08:35:57.764Z,4.43
2018-06-19T08:38:28.624Z,3.77
2018-06-19T08:40:59.286Z,4.70
2018-06-19T08:43:29.880Z,6.47
2018-06-19T08:46:00.421Z,4.67
2018-06-19T08:48:30.953Z,4.50
2018-06-19T08:51:01.471Z,4.90
2018-06-19T08:53:32.119Z,4.40
2018-06-19T08:56:02.608Z,3.60
2018-06-19T08:58:33.375Z,4.00
2018-06-19T09:01:03.828Z,4.43
2018-06-19T09:03:34.043Z,4.13
2018-06-19T09:06:05.302Z,4.00
2018-06-19T09:08:36.110Z,4.27
2018-06-19T09:11:07.041Z,4.13
2018-06-19T09:13:37.950Z,3.37
2018-06-19T09:16:08.997Z,3.83
2018-06-19T09:18:39.918Z,4.10
2018-06-19T09:21:10.435Z,3.93
2018-06-19T09:23:41.516Z,3.90
2018-06-19T09:26:11.952Z,4.67
2018-06-19T09:28:42.628Z,4.10
2018-06-19T09:31:13.539Z,4.67
2018-06-19T09:33:44.105Z,4.73
2018-06-19T09:36:14.607Z,5.27
2018-06-19T09:38:44.950Z,3.93
2018-06-19T09:41:15.952Z,4.60
2018-06-19T09:43:46.612Z,5.30
2018-06-19T09:46:17.000Z,4.90
2018-06-19T09:48:47.536Z,4.57
2018-06-19T09:51:18.171Z,5.10
2018-06-19T09:53:48.790Z,3.93
2018-06-19T09:56:19.395Z,4.23
2018-06-19T09:58:49.893Z,6.07
2018-06-19T10:01:20.254Z,5.53
2018-06-19T10:03:50.635Z,5.80
2018-06-19T10:06:21.060Z,6.47
2018-06-19T10:08:51.585Z,4.63
2018-06-19T10:11:22.432Z,4.53
2018-06-19T10:13:52.745Z,5.03
2018-06-19T10:16:23.300Z,5.30
2018-06-19T10:18:53.704Z,7.90
2018-06-19T10:21:24.142Z,5.53
2018-06-19T10:23:54.393Z,6.73
2018-06-19T10:26:24.392Z,5.43
2018-06-19T10:28:55.168Z,5.07
2018-06-19T10:31:25.718Z,5.20
2018-06-19T10:33:56.327Z,5.17
2018-06-19T10:36:26.788Z,4.67
2018-06-19T10:38:57.307Z,4.30
2018-06-19T10:41:27.755Z,5.17
2018-06-19T10:43:57.862Z,4.87
2018-06-19T10:46:28.379Z,3.93
2018-06-19T10:48:58.736Z,5.10
2018-06-19T10:51:28.814Z,4.60
2018-06-19T10:53:58.981Z,4.10
2018-06-19T10:56:29.213Z,4.47
2018-06-19T10:58:59.461Z,4.10
2018-06-19T11:01:30.400Z,4.33
2018-06-19T11:04:00.401Z,4.20
2018-06-19T11:06:30.521Z,4.57
2018-06-19T11:09:00.743Z,4.90
2018-06-19T11:11:31.418Z,4.10
2018-06-19T11:14:01.870Z,4.47
2018-06-19T11:16:32.199Z,4.20
2018-06-19T11:19:02.176Z,4.53
2018-06-19T11:21:33.085Z,4.43
2018-06-19T11:24:03.199Z,4.47
2018-06-19T11:26:33.595Z,4.37
2018-06-19T11:29:03.877Z,4.47
2018-06-19T11:31:34.300Z,4.23
2018-06-19T11:34:04.648Z,4.20
2018-06-19T11:36:35.063Z,4.63
2018-06-19T11:39:08.093Z,4.30
2018-06-19T11:41:38.183Z,4.03
2018-06-19T11:44:08.776Z,4.33
2018-06-19T11:46:38.946Z,5.83
2018-06-19T11:49:09.959Z,4.50
2018-06-19T11:51:40.133Z,4.80
2018-06-19T11:54:10.230Z,5.43
2018-06-19T11:56:40.321Z,4.30
2018-06-19T11:59:11.228Z,4.17
2018-06-19T12:01:41.199Z,4.00
2018-06-19T12:04:11.316Z,4.10
2018-06-19T12:06:41.413Z,4.10
2018-06-19T12:09:12.186Z,4.10
2018-06-19T12:11:42.352Z,3.90
2018-06-19T12:14:12.666Z,4.47
2018-06-19T12:16:42.931Z,4.10
2018-06-19T12:19:12.879Z,4.00
2018-06-19T12:21:42.908Z,4.23
2018-06-19T12:24:13.224Z,4.13
2018-06-19T12:26:43.665Z,3.80
2018-06-19T12:29:13.680Z,4.00
2018-06-19T12:31:43.927Z,4.47
2018-06-19T12:34:14.420Z,4.10
2018-06-19T12:36:44.729Z,4.10
2018-06-19T12:39:14.800Z,4.40
2018-06-19T12:41:46.471Z,4.30
2018-06-19T12:44:16.506Z,3.93
2018-06-19T12:46:46.575Z,4.70
2018-06-19T12:49:25.295Z,4.63
2018-06-19T12:52:06.025Z,4.37
2018-06-19T12:55:44.934Z,4.20
2018-06-19T12:58:15.085Z,4.77
2018-06-19T13:00:45.338Z,4.83
2018-06-19T13:03:26.312Z,5.10
2018-06-19T13:06:08.027Z,4.70
2018-06-19T13:08:38.084Z,5.40
2018-06-19T13:11:08.927Z,4.43
2018-06-19T13:13:49.847Z,5.00
2018-06-19T13:16:30.518Z,4.60
2018-06-19T13:19:11.239Z,4.83
2018-06-19T13:21:41.565Z,4.80
2018-06-19T13:24:12.297Z,4.40
2018-06-19T13:26:42.440Z,4.70
2018-06-19T13:29:50.856Z,4.80
2018-06-19T13:32:21.014Z,4.13
2018-06-19T13:34:51.324Z,4.43
2018-06-19T13:37:21.786Z,4.53
2018-06-19T13:41:02.992Z,5.13
2018-06-19T13:43:44.217Z,4.53
2018-06-19T13:46:14.381Z,4.00
2018-06-19T13:48:44.524Z,3.93
2018-06-19T13:51:14.758Z,4.30
2018-06-19T13:53:45.505Z,4.53
2018-06-19T13:57:35.206Z,4.30
2018-06-19T14:00:07.406Z,4.90
2018-06-19T14:02:37.615Z,5.17
2018-06-19T14:05:08.796Z,5.10
2018-06-19T14:07:49.922Z,4.73
2018-06-19T14:10:30.972Z,4.30
2018-06-19T14:13:02.743Z,4.77
2018-06-19T14:15:37.422Z,4.27
2018-06-19T14:18:08.099Z,4.47
2018-06-19T14:20:38.665Z,4.33
2018-06-19T14:23:08.919Z,4.30
2018-06-19T14:25:39.312Z,4.53
2018-06-19T14:28:09.428Z,3.77
2018-06-19T14:30:40.069Z,3.50
2018-06-19T14:33:10.223Z,2.90
2018-06-19T14:35:40.420Z,3.60
2018-06-19T14:38:10.547Z,3.10
2018-06-19T14:40:40.812Z,2.73
2018-06-19T14:43:10.766Z,3.27
2018-06-19T14:45:40.841Z,2.60
2018-06-19T14:48:10.797Z,2.87
2018-06-19T14:50:40.953Z,3.20
2018-06-19T14:53:10.997Z,3.37
2018-06-19T14:55:41.289Z,3.73
2018-06-19T14:58:11.288Z,3.77
2018-06-19T15:00:41.453Z,3.53
2018-06-19T15:03:11.676Z,3.47
2018-06-19T15:05:41.805Z,4.23
2018-06-19T15:08:11.778Z,4.10
2018-06-19T15:10:42.408Z,4.60
2018-06-19T15:13:12.538Z,3.90
2018-06-19T15:15:42.608Z,4.13
2018-06-19T15:18:12.738Z,4.80
2018-06-19T15:20:43.151Z,4.50
2018-06-19T15:23:13.488Z,4.40
2018-06-19T15:25:44.198Z,4.50
2018-06-19T15:28:14.212Z,4.63
2018-06-19T15:30:44.468Z,4.83
2018-06-19T15:33:14.855Z,4.30
2018-06-19T15:35:44.995Z,4.67
2018-06-19T15:38:15.079Z,4.33
2018-06-19T15:40:46.124Z,4.40
2018-06-19T15:43:16.289Z,5.07
2018-06-19T15:45:46.364Z,5.30
2018-06-19T15:48:16.805Z,4.90
2018-06-19T15:50:46.961Z,5.53
2018-06-19T15:53:17.118Z,5.30
2018-06-19T15:55:47.343Z,4.40
2018-06-19T15:58:17.740Z,4.87
2018-06-19T16:00:47.789Z,5.20
2018-06-19T16:03:17.824Z,4.90
2018-06-19T16:05:47.773Z,4.80
2018-06-19T16:08:18.678Z,4.67
2018-06-19T16:10:49.710Z,5.20
2018-06-19T16:13:19.962Z,5.70
2018-06-19T16:15:51.459Z,6.10
2018-06-19T16:18:23.106Z,6.27
2018-06-19T16:20:54.544Z,9.13
2018-06-19T16:23:25.111Z,7.27
2018-06-19T16:25:55.751Z,6.40
2018-06-19T16:28:26.512Z,7.00
2018-06-19T16:31:18.557Z,6.07
2018-06-19T16:34:00.249Z,5.87
2018-06-19T16:36:37.228Z,4.93
2018-06-19T16:39:18.001Z,5.70
2018-06-19T16:42:01.567Z,6.60
2018-06-19T16:44:39.345Z,5.57
2018-06-19T16:47:33.293Z,5.53
2018-06-19T16:50:13.404Z,6.27
2018-06-19T16:52:53.831Z,5.90
2018-06-19T16:55:31.961Z,6.30
2018-06-19T16:58:08.250Z,6.57
2018-06-19T17:03:31.709Z,6.53
2018-06-19T17:06:10.785Z,5.60
2018-06-19T17:08:45.391Z,6.30
2018-06-19T17:11:18.464Z,6.73
2018-06-19T17:14:07.625Z,8.57
2018-06-19T17:16:44.883Z,13.77
2018-06-19T17:19:19.970Z,16.37
2018-06-19T17:21:53.639Z,10.67
2018-06-19T17:24:26.792Z,8.73
2018-06-19T17:26:58.779Z,8.97
2018-06-19T17:29:29.659Z,8.20
2018-06-19T17:32:03.037Z,10.93
2018-06-19T17:34:33.427Z,12.77
2018-06-19T17:37:04.288Z,10.23
2018-06-19T17:39:37.058Z,8.83
2018-06-19T17:42:10.307Z,6.57
2018-06-19T17:44:42.235Z,6.47
2018-06-19T17:47:15.059Z,6.07
2018-06-19T17:49:46.717Z,7.40
2018-06-19T17:52:18.314Z,8.90
2018-06-19T17:54:50.803Z,12.67
2018-06-19T17:57:25.059Z,9.63
2018-06-19T17:59:57.435Z,8.17
2018-06-19T18:02:30.449Z,10.57
2018-06-19T18:05:00.912Z,11.47
2018-06-19T18:07:31.760Z,8.83
2018-06-19T18:10:03.762Z,7.53
2018-06-19T18:12:36.352Z,8.53
2018-06-19T18:15:07.285Z,8.07
2018-06-19T18:17:39.118Z,7.97
2018-06-19T18:20:09.621Z,6.47
2018-06-19T18:22:43.789Z,6.93
2018-06-19T18:25:15.460Z,6.57
2018-06-19T18:27:46.584Z,9.00
2018-06-19T18:30:18.397Z,7.10
2018-06-19T18:32:51.457Z,6.40
2018-06-19T18:35:22.754Z,5.10
2018-06-19T18:37:58.545Z,5.47
2018-06-19T18:40:29.226Z,5.30
2018-06-19T18:43:02.666Z,5.10
2018-06-19T18:45:34.748Z,5.33
2018-06-19T18:48:05.737Z,5.00
2018-06-19T18:50:38.324Z,7.30
2018-06-19T18:53:08.884Z,7.00
2018-06-19T18:55:40.282Z,6.13
2018-06-19T18:58:15.781Z,5.07
2018-06-19T19:00:47.401Z,5.53
2018-06-19T19:03:18.241Z,7.97
2018-06-19T19:05:50.810Z,6.60
2018-06-19T19:08:25.408Z,9.57
2018-06-19T19:10:59.240Z,6.33
2018-06-19T19:13:37.924Z,5.87
2018-06-19T19:16:15.047Z,5.23
2018-06-19T19:18:52.651Z,8.07
2018-06-19T19:21:25.747Z,7.77
2018-06-19T19:23:56.779Z,9.67
2018-06-19T19:26:33.575Z,8.90
2018-06-19T19:29:09.569Z,7.83
2018-06-19T19:31:41.091Z,8.20
2018-06-19T19:34:11.689Z,8.47
2018-06-19T19:36:49.072Z,7.80
2018-06-19T19:39:24.927Z,8.00
2018-06-19T19:41:58.362Z,9.77
2018-06-19T19:44:30.996Z,8.13
2018-06-19T19:47:07.753Z,8.00
2018-06-19T19:49:40.187Z,9.10
2018-06-19T19:52:11.815Z,9.10
2018-06-19T19:54:46.050Z,8.67
2018-06-19T19:57:22.768Z,8.77
2018-06-19T19:59:58.252Z,8.83
2018-06-19T20:02:31.445Z,7.73
2018-06-19T20:05:06.143Z,8.50
2018-06-19T20:07:40.917Z,7.90
2018-06-19T20:10:14.227Z,8.07
2018-06-19T20:12:47.817Z,7.80
2018-06-19T20:15:21.626Z,7.43
2018-06-19T20:17:55.565Z,7.60
2018-06-19T20:20:35.314Z,7.63
2018-06-19T20:23:10.172Z,7.87
2018-06-19T20:25:44.065Z,7.77
2018-06-19T20:28:20.017Z,8.43
2018-06-19T20:30:55.984Z,8.20
2018-06-19T20:33:29.898Z,8.13
2018-06-19T20:36:07.866Z,8.30
2018-06-19T20:38:40.006Z,8.53
2018-06-19T20:41:12.988Z,8.43
2018-06-19T20:43:46.033Z,7.93
2018-06-19T20:46:20.117Z,8.33
2018-06-19T20:48:50.614Z,7.43
2018-06-19T20:51:22.610Z,8.37
2018-06-19T20:53:54.313Z,7.57
2018-06-19T20:56:25.023Z,7.07
2018-06-19T20:58:57.909Z,7.23
2018-06-19T21:01:30.769Z,6.97
2018-06-19T21:04:01.538Z,6.97
2018-06-19T21:06:32.785Z,7.23
2018-06-19T21:09:04.685Z,7.27
2018-06-19T21:11:36.226Z,7.07
2018-06-19T21:14:11.751Z,7.40
2018-06-19T21:16:44.355Z,7.47
2018-06-19T21:19:17.445Z,6.30
2018-06-19T21:21:48.374Z,7.03
2018-06-19T21:24:21.787Z,6.47
2018-06-19T21:26:53.105Z,6.53
2018-06-19T21:29:25.301Z,7.70
2018-06-19T21:32:00.144Z,6.10
2018-06-19T21:34:33.317Z,6.63
2018-06-19T21:37:04.739Z,6.13
2018-06-19T21:39:38.442Z,6.43
2018-06-19T21:42:09.612Z,7.20
2018-06-19T21:44:40.553Z,6.63
2018-06-19T21:47:14.930Z,7.37
2018-06-19T21:49:47.177Z,6.40
2018-06-19T21:52:21.785Z,6.60
2018-06-19T21:54:54.266Z,6.93
2018-06-19T21:57:25.645Z,6.43
2018-06-19T21:59:58.529Z,6.93
2018-06-19T22:02:35.180Z,6.37
2018-06-19T22:05:07.207Z,6.13
2018-06-19T22:07:38.164Z,6.57
2018-06-19T22:10:08.633Z,6.60
2018-06-19T22:12:42.281Z,6.40
2018-06-19T22:15:14.138Z,6.43
2018-06-19T22:17:52.648Z,6.83
2018-06-19T22:20:25.645Z,5.80
2018-06-19T22:23:08.793Z,5.50
2018-06-19T22:25:40.889Z,6.00
2018-06-19T22:28:13.615Z,5.33
2018-06-19T22:30:47.917Z,6.03
2018-06-19T22:33:28.568Z,6.47
2018-06-19T22:36:00.560Z,6.63
2018-06-19T22:38:31.724Z,6.00
2018-06-19T22:41:04.035Z,6.73
2018-06-19T22:43:37.314Z,6.00
2018-06-19T22:46:09.394Z,5.60
2018-06-19T22:48:41.918Z,6.17
2018-06-19T22:51:12.679Z,6.23
2018-06-19T22:53:45.128Z,6.40
2018-06-19T22:56:17.004Z,6.47
2018-06-19T22:58:48.967Z,7.63
2018-06-19T23:01:25.560Z,14.97
2018-06-19T23:03:58.994Z,7.10
2018-06-19T23:06:31.367Z,5.73
2018-06-19T23:09:02.736Z,5.73
2018-06-19T23:11:35.358Z,5.77
2018-06-19T23:14:09.321Z,5.73
2018-06-19T23:16:45.400Z,6.50
2018-06-19T23:19:20.236Z,5.07
2018-06-19T23:21:59.971Z,5.67
2018-06-19T23:24:32.909Z,6.10
2018-06-19T23:27:06.346Z,5.87
2018-06-19T23:29:37.681Z,6.07
2018-06-19T23:32:09.015Z,5.77
2018-06-19T23:34:42.324Z,5.93
2018-06-19T23:37:14.182Z,5.27
2018-06-19T23:39:45.604Z,5.87
2018-06-19T23:42:19.053Z,5.47
2018-06-19T23:44:50.846Z,6.13
2018-06-19T23:47:23.093Z,5.70
2018-06-19T23:49:54.433Z,5.93
2018-06-19T23:52:27.454Z,5.93
2018-06-19T23:55:00.718Z,5.17
2018-06-19T23:57:33.611Z,5.47
